Time;durP1;ratioP1;P1;durP2;ratioP2;P2;SDS_P1;SDS_P2;PMS_P1;PMS_P2;Temp;Humidity;BMP_temperature;BMP_pressure;BME280_temperature;BME280_humidity;BME280_pressure;Samples;Min_cycle;Max_cycle;Signal;HPM_P1;HPM_P2
2021/08/11 00:01:29;;;;;;;18.70;8.35;;;26.50;99.90;;;;;;5049970;28;20032;-68
2021/08/11 00:04:33;;;;;;;16.90;7.63;;;26.50;99.90;;;;;;5049938;28;20044;-68
2021/08/11 00:07:37;;;;;;;18.27;8.32;;;26.50;99.90;;;;;;5049632;28;20052;-68
2021/08/11 00:10:42;;;;;;;15.10;7.93;;;26.50;99.90;;;;;;5049453;28;20048;-68
2021/08/11 00:13:47;;;;;;;13.88;7.70;;;26.50;99.90;;;;;;5029993;28;20043;-68
2021/08/11 00:16:51;;;;;;;15.40;7.47;;;26.40;99.90;;;;;;5029601;28;20053;-68
2021/08/11 00:19:55;;;;;;;17.85;7.18;;;26.40;99.90;;;;;;5029927;28;20427;-68
2021/08/11 00:22:59;;;;;;;12.05;6.82;;;26.40;99.90;;;;;;5030216;28;20064;-67
2021/08/11 00:26:04;;;;;;;13.50;7.65;;;26.30;99.90;;;;;;5029886;28;20858;-68
2021/08/11 00:29:08;;;;;;;12.20;7.97;;;26.20;99.90;;;;;;5029396;28;20056;-67
2021/08/11 00:32:12;;;;;;;16.88;8.02;;;26.10;99.90;;;;;;5040647;28;20494;-67
2021/08/11 00:35:17;;;;;;;16.73;8.23;;;25.90;99.90;;;;;;5029699;28;20499;-67
2021/08/11 00:38:22;;;;;;;14.25;7.60;;;25.80;99.90;;;;;;5028519;28;20048;-67
2021/08/11 00:41:28;;;;;;;14.25;8.88;;;25.70;99.90;;;;;;5028940;28;20416;-68
2021/08/11 00:44:33;;;;;;;22.20;8.98;;;25.70;99.90;;;;;;5029192;28;20534;-68
2021/08/11 00:47:38;;;;;;;17.70;8.88;;;25.70;99.90;;;;;;5029150;28;20501;-68
2021/08/11 00:50:44;;;;;;;19.42;9.02;;;25.70;99.90;;;;;;5040488;28;20372;-68
2021/08/11 00:53:50;;;;;;;20.30;9.00;;;25.60;99.90;;;;;;5028814;28;20044;-68
2021/08/11 00:56:58;;;;;;;18.38;8.57;;;25.60;99.90;;;;;;5028641;28;20550;-68
2021/08/11 01:00:04;;;;;;;15.95;8.60;;;25.60;99.90;;;;;;5039968;28;20499;-67
2021/08/11 01:03:15;;;;;;;18.00;9.02;;;25.60;99.90;;;;;;5028542;28;20048;-68
2021/08/11 01:06:19;;;;;;;18.77;8.25;;;25.50;99.90;;;;;;5040151;28;20400;-68
2021/08/11 01:09:24;;;;;;;19.90;8.40;;;25.50;99.90;;;;;;5054928;28;20056;-68
2021/08/11 01:12:34;;;;;;;20.63;9.13;;;25.50;99.90;;;;;;5048213;28;20044;-68
2021/08/11 01:15:39;;;;;;;17.73;8.70;;;25.50;99.90;;;;;;5049084;28;20586;-68
2021/08/11 01:18:44;;;;;;;15.75;8.85;;;25.50;99.90;;;;;;5047759;28;20052;-68
2021/08/11 01:22:02;;;;;;;19.30;9.13;;;25.40;99.90;;;;;;5059636;28;20483;-68
2021/08/11 01:25:31;;;;;;;19.38;8.35;;;25.40;99.90;;;;;;5062586;28;20028;-68
2021/08/11 01:28:58;;;;;;;18.23;7.65;;;25.40;99.90;;;;;;5062806;28;20040;-68
2021/08/11 01:32:39;;;;;;;13.73;7.20;;;25.40;99.90;;;;;;5051952;28;20036;-68
2021/08/11 01:35:58;;;;;;;15.05;7.40;;;25.40;99.90;;;;;;4964106;28;20042;-68
2021/08/11 01:39:13;;;;;;;11.13;7.72;;;25.40;99.90;;;;;;5052134;28;20502;-68
2021/08/11 01:42:30;;;;;;;18.35;7.90;;;25.40;99.90;;;;;;5051880;28;20036;-67
2021/08/11 01:45:40;;;;;;;16.52;7.90;;;25.40;99.90;;;;;;5049511;28;20044;-68
2021/08/11 01:48:47;;;;;;;15.93;7.40;;;25.30;99.90;;;;;;5051714;28;20052;-67
2021/08/11 01:51:54;;;;;;;15.75;8.57;;;25.10;99.90;;;;;;5043063;28;20756;-68
2021/08/11 01:55:01;;;;;;;12.95;8.80;;;24.90;99.90;;;;;;5042248;28;20040;-68
2021/08/11 01:58:11;;;;;;;19.23;9.02;;;24.80;99.90;;;;;;5050927;28;20044;-68
2021/08/11 02:01:15;;;;;;;20.35;9.52;;;24.60;99.90;;;;;;5063246;28;20056;-68
2021/08/11 02:04:23;;;;;;;12.73;8.88;;;24.60;99.90;;;;;;5062971;28;20040;-68
2021/08/11 02:07:27;;;;;;;17.92;9.05;;;24.50;99.90;;;;;;5051999;28;20060;-68
2021/08/11 02:10:33;;;;;;;22.05;9.63;;;24.50;99.90;;;;;;5062757;28;20080;-68
2021/08/11 02:13:39;;;;;;;25.08;10.68;;;24.40;99.90;;;;;;5051250;28;20048;-67
2021/08/11 02:16:45;;;;;;;23.92;10.07;;;24.30;99.90;;;;;;5050975;28;20055;-68
2021/08/11 02:19:49;;;;;;;14.93;9.82;;;24.10;99.90;;;;;;5062214;28;20509;-68
2021/08/11 02:22:54;;;;;;;18.08;10.18;;;24.00;99.90;;;;;;5062317;28;20075;-68
2021/08/11 02:26:19;;;;;;;15.63;9.40;;;23.80;99.90;;;;;;5062514;28;20044;-68
2021/08/11 02:29:41;;;;;;;14.80;9.70;;;23.70;99.90;;;;;;5050195;28;20060;-68
2021/08/11 02:33:02;;;;;;;19.23;9.70;;;23.70;99.90;;;;;;5050615;28;20044;-67
2021/08/11 02:36:21;;;;;;;21.98;10.98;;;23.70;99.90;;;;;;5050860;28;20036;-68
2021/08/11 02:39:35;;;;;;;19.25;9.52;;;23.70;99.90;;;;;;5060905;28;20048;-68
2021/08/11 02:42:43;;;;;;;16.17;11.05;;;23.60;99.90;;;;;;5050425;28;20048;-68
2021/08/11 02:46:06;;;;;;;26.38;10.15;;;23.60;99.90;;;;;;5050774;28;20400;-68
2021/08/11 02:49:25;;;;;;;19.80;11.00;;;23.50;99.90;;;;;;5049952;28;20044;-68
2021/08/11 02:52:32;;;;;;;20.48;10.73;;;23.50;99.90;;;;;;5050682;28;20475;-68
2021/08/11 02:55:38;;;;;;;17.73;11.05;;;23.40;99.90;;;;;;5062193;28;20064;-67
2021/08/11 02:58:43;;;;;;;29.88;12.55;;;23.40;99.90;;;;;;5049717;28;20040;-67
2021/08/11 03:01:49;;;;;;;19.95;11.27;;;23.30;99.90;;;;;;5061847;28;20056;-68
2021/08/11 03:04:54;;;;;;;20.98;11.32;;;23.20;99.90;;;;;;5050370;28;20040;-68
2021/08/11 03:08:00;;;;;;;22.45;11.82;;;23.20;99.90;;;;;;5049884;28;20474;-68
2021/08/11 03:11:08;;;;;;;18.83;11.95;;;23.00;99.90;;;;;;5049907;28;20052;-68
2021/08/11 03:14:16;;;;;;;17.00;11.00;;;23.00;99.90;;;;;;5061573;28;20040;-67
2021/08/11 03:17:25;;;;;;;16.08;10.77;;;22.90;99.90;;;;;;5050076;28;20078;-67
2021/08/11 03:20:32;;;;;;;19.15;11.80;;;22.90;99.90;;;;;;5049939;28;20043;-67
2021/08/11 03:23:38;;;;;;;23.25;12.25;;;22.90;99.90;;;;;;5050841;28;20294;-68
2021/08/11 03:26:45;;;;;;;18.20;12.20;;;22.90;99.90;;;;;;5050953;28;20111;-67
2021/08/11 03:30:16;;;;;;;21.63;11.73;;;22.90;99.90;;;;;;5050249;28;20040;-68
2021/08/11 03:33:20;;;;;;;17.65;10.93;;;22.80;99.90;;;;;;5061605;28;20781;-67
2021/08/11 03:36:27;;;;;;;23.52;11.57;;;22.70;99.90;;;;;;5061855;28;20044;-68
2021/08/11 03:39:35;;;;;;;19.63;12.00;;;22.70;99.90;;;;;;5049189;28;20534;-68
2021/08/11 03:42:40;;;;;;;22.23;12.35;;;22.70;99.90;;;;;;5050827;28;20048;-67
2021/08/11 03:45:44;;;;;;;23.77;12.43;;;22.60;99.90;;;;;;5049463;28;20052;-67
2021/08/11 03:48:49;;;;;;;28.15;13.75;;;22.30;99.90;;;;;;5060563;28;20502;-67
2021/08/11 03:51:55;;;;;;;22.60;11.85;;;22.20;99.90;;;;;;5061617;28;20513;-67
2021/08/11 03:54:59;;;;;;;21.70;12.85;;;22.20;99.90;;;;;;5060995;28;20502;-67
2021/08/11 03:58:04;;;;;;;22.63;12.35;;;22.30;99.90;;;;;;5060416;28;20052;-68
2021/08/11 04:01:09;;;;;;;20.13;12.10;;;22.40;99.90;;;;;;5049061;28;20060;-68
2021/08/11 04:04:13;;;;;;;23.38;12.43;;;22.60;99.90;;;;;;5050034;28;20040;-68
2021/08/11 04:07:16;;;;;;;18.27;11.07;;;22.60;99.90;;;;;;5049989;28;20052;-68
2021/08/11 04:10:21;;;;;;;19.35;11.32;;;22.60;99.90;;;;;;5049921;28;20055;-68
2021/08/11 04:13:25;;;;;;;21.42;10.57;;;22.60;99.90;;;;;;5049854;28;20498;-68
2021/08/11 04:16:29;;;;;;;21.63;11.60;;;22.60;99.90;;;;;;5049860;28;20067;-68
2021/08/11 04:19:35;;;;;;;21.92;11.18;;;22.70;99.90;;;;;;5049069;28;20056;-68
2021/08/11 04:22:40;;;;;;;17.63;10.80;;;22.70;99.90;;;;;;5049894;28;20056;-68
2021/08/11 04:25:44;;;;;;;23.92;10.95;;;22.70;99.90;;;;;;5049401;28;20051;-67
2021/08/11 04:28:48;;;;;;;24.70;11.25;;;22.70;99.90;;;;;;5049287;28;20052;-67
2021/08/11 04:32:04;;;;;;;20.65;11.63;;;22.80;99.90;;;;;;5048952;28;20052;-68
2021/08/11 04:35:09;;;;;;;28.35;13.25;;;22.70;99.90;;;;;;5049753;28;20063;-68
2021/08/11 04:38:13;;;;;;;19.85;11.10;;;22.80;99.90;;;;;;5049322;28;20048;-67
2021/08/11 04:41:17;;;;;;;20.00;11.35;;;22.90;99.90;;;;;;5049489;28;20052;-68
2021/08/11 04:44:22;;;;;;;20.67;11.10;;;23.00;99.90;;;;;;5048406;28;20404;-68
2021/08/11 04:47:26;;;;;;;21.05;11.63;;;23.20;99.90;;;;;;5049383;28;20055;-68
2021/08/11 04:50:30;;;;;;;15.00;9.95;;;23.30;99.90;;;;;;5049182;28;20056;-68
2021/08/11 04:53:34;;;;;;;19.80;10.77;;;23.60;99.90;;;;;;5049710;28;20499;-68
2021/08/11 04:56:38;;;;;;;16.95;9.95;;;23.60;99.90;;;;;;5049652;28;20419;-68
2021/08/11 04:59:42;;;;;;;22.05;11.55;;;23.90;99.90;;;;;;5053096;28;20048;-68
2021/08/11 05:02:46;;;;;;;21.40;10.20;;;24.10;99.90;;;;;;5053558;28;20048;-67
2021/08/11 05:05:50;;;;;;;18.00;9.77;;;24.10;99.90;;;;;;5053483;28;20052;-68
2021/08/11 05:08:56;;;;;;;23.15;10.70;;;24.10;99.90;;;;;;5052929;28;20044;-68
2021/08/11 05:12:01;;;;;;;14.15;8.68;;;24.30;99.90;;;;;;5052924;28;20395;-68
2021/08/11 05:15:06;;;;;;;24.95;9.40;;;25.00;99.90;;;;;;5053152;28;20044;-68
2021/08/11 05:18:11;;;;;;;15.85;8.50;;;25.90;99.90;;;;;;5052790;28;20044;-68
2021/08/11 05:21:16;;;;;;;18.27;8.18;;;26.60;99.90;;;;;;5052695;28;20391;-68
2021/08/11 05:24:20;;;;;;;21.55;7.95;;;27.20;99.90;;;;;;5053083;28;20498;-68
2021/08/11 05:27:25;;;;;;;21.85;7.78;;;27.90;99.90;;;;;;5052983;28;20051;-68
2021/08/11 05:30:29;;;;;;;17.70;7.50;;;28.60;99.90;;;;;;5052402;28;20051;-67
2021/08/11 05:33:33;;;;;;;16.15;8.18;;;28.90;99.90;;;;;;5053114;28;20273;-67
2021/08/11 05:36:38;;;;;;;13.30;8.38;;;26.80;99.90;;;;;;5052732;28;20063;-67
2021/08/11 05:39:43;;;;;;;18.02;8.77;;;25.70;99.90;;;;;;5052231;28;20071;-67
2021/08/11 05:42:49;;;;;;;17.30;8.55;;;25.20;99.90;;;;;;5052448;28;20047;-67
2021/08/11 05:45:55;;;;;;;12.93;8.07;;;26.20;99.90;;;;;;5051813;28;20438;-68
2021/08/11 05:48:59;;;;;;;12.63;7.30;;;28.30;99.90;;;;;;5052099;28;20044;-68
2021/08/11 05:52:04;;;;;;;14.48;6.85;;;30.00;99.90;;;;;;5052106;28;20404;-68
2021/08/11 05:55:09;;;;;;;15.50;7.45;;;30.80;99.90;;;;;;5052623;28;20043;-68
2021/08/11 05:58:13;;;;;;;16.70;5.88;;;31.70;99.90;;;;;;5051770;28;20047;-68
2021/08/11 06:01:17;;;;;;;17.52;6.30;;;32.20;99.90;;;;;;5052058;28;20056;-68
2021/08/11 06:04:22;;;;;;;13.82;6.35;;;32.80;99.90;;;;;;5052209;28;20044;-68
2021/08/11 06:07:27;;;;;;;13.63;6.10;;;33.20;99.90;;;;;;5052379;28;20063;-68
2021/08/11 06:10:31;;;;;;;16.00;6.10;;;33.90;99.30;;;;;;5050359;28;20056;-68
2021/08/11 06:13:35;;;;;;;13.70;5.45;;;34.30;98.70;;;;;;5051971;28;20060;-68
2021/08/11 06:16:40;;;;;;;13.68;6.35;;;34.90;97.40;;;;;;5052116;28;20048;-68
2021/08/11 06:19:47;;;;;;;12.93;5.05;;;35.40;96.00;;;;;;5051706;28;20065;-69
2021/08/11 06:22:52;;;;;;;10.95;4.63;;;35.80;95.30;;;;;;5051015;28;20056;-68
2021/08/11 06:25:56;;;;;;;15.80;5.95;;;35.80;94.60;;;;;;5051852;28;20048;-68
2021/08/11 06:29:01;;;;;;;13.77;5.00;;;35.60;94.60;;;;;;5051830;28;20048;-68
2021/08/11 06:32:06;;;;;;;12.25;5.78;;;35.80;94.30;;;;;;5051689;28;20411;-69
2021/08/11 06:35:11;;;;;;;12.13;5.30;;;35.70;93.90;;;;;;5052055;28;20044;-69
2021/08/11 06:38:16;;;;;;;8.88;4.60;;;36.10;93.50;;;;;;5051527;28;20052;-69
2021/08/11 06:41:21;;;;;;;10.18;4.03;;;36.30;93.10;;;;;;5051461;28;20047;-68
2021/08/11 06:45:04;;;;;;;9.05;4.03;;;36.70;92.70;;;;;;5052296;28;20044;-68
2021/08/11 06:48:09;;;;;;;10.73;4.47;;;37.30;91.80;;;;;;5062050;28;20060;-68
2021/08/11 06:51:13;;;;;;;12.23;4.55;;;37.30;91.50;;;;;;5061941;28;20074;-68
2021/08/11 06:54:18;;;;;;;13.32;4.45;;;36.90;91.20;;;;;;5051570;28;20107;-69
2021/08/11 06:57:22;;;;;;;11.88;4.25;;;36.70;91.50;;;;;;5051707;28;20043;-69
2021/08/11 07:00:26;;;;;;;8.98;4.57;;;36.30;91.40;;;;;;5062086;28;20060;-68
2021/08/11 07:03:31;;;;;;;12.70;5.60;;;33.30;93.80;;;;;;5050550;28;20052;-69
2021/08/11 07:06:39;;;;;;;12.25;4.90;;;32.00;95.80;;;;;;5051278;28;20494;-69
2021/08/11 07:09:43;;;;;;;9.02;4.60;;;33.40;95.10;;;;;;5050775;28;20498;-69
2021/08/11 07:12:48;;;;;;;11.48;4.78;;;34.90;93.80;;;;;;5050971;28;20490;-69
2021/08/11 07:15:52;;;;;;;11.43;4.30;;;35.90;92.60;;;;;;5051281;28;20474;-69
2021/08/11 07:18:59;;;;;;;13.48;5.15;;;36.50;92.10;;;;;;5061448;28;20490;-69
2021/08/11 07:22:03;;;;;;;9.32;4.65;;;37.00;90.90;;;;;;5050348;28;20047;-68
2021/08/11 07:25:08;;;;;;;10.88;4.45;;;37.50;90.40;;;;;;5050885;28;20044;-69
2021/08/11 07:28:12;;;;;;;10.90;4.30;;;37.50;89.90;;;;;;5050505;28;20052;-69
2021/08/11 07:31:17;;;;;;;10.73;4.82;;;38.10;89.20;;;;;;5050564;28;20123;-69
2021/08/11 07:34:21;;;;;;;11.70;4.25;;;38.50;88.00;;;;;;5042967;28;20422;-68
2021/08/11 07:37:26;;;;;;;13.65;4.50;;;39.20;86.70;;;;;;5032398;28;20028;-68
2021/08/11 07:40:31;;;;;;;12.52;5.22;;;39.60;84.80;;;;;;5046041;28;20040;-68
2021/08/11 07:43:36;;;;;;;12.35;4.65;;;39.80;85.30;;;;;;5049752;28;20044;-68
2021/08/11 07:46:40;;;;;;;11.85;4.43;;;40.10;84.10;;;;;;5050029;28;20048;-68
2021/08/11 07:49:46;;;;;;;12.27;4.57;;;40.50;81.80;;;;;;5030443;28;20071;-68
2021/08/11 07:52:50;;;;;;;8.90;3.53;;;40.10;81.50;;;;;;5030398;28;20428;-66
2021/08/11 07:55:55;;;;;;;8.88;3.70;;;41.00;80.30;;;;;;5061133;28;20047;-69
2021/08/11 07:58:58;;;;;;;17.17;4.10;;;41.40;79.40;;;;;;5049651;28;20048;-66
2021/08/11 08:02:08;;;;;;;9.95;3.88;;;41.00;77.30;;;;;;5049833;28;20434;-68
2021/08/11 08:05:14;;;;;;;12.48;3.70;;;39.50;78.60;;;;;;5050012;28;20049;-68
2021/08/11 08:08:18;;;;;;;7.82;3.53;;;39.90;78.30;;;;;;5049991;28;20040;-68
2021/08/11 08:11:22;;;;;;;12.18;4.07;;;40.30;78.00;;;;;;5060657;28;20044;-68
2021/08/11 08:14:26;;;;;;;8.90;3.70;;;41.20;77.30;;;;;;5049772;28;20044;-67
2021/08/11 08:17:30;;;;;;;8.60;3.33;;;39.40;78.20;;;;;;5050054;28;20048;-67
2021/08/11 08:20:34;;;;;;;9.27;3.55;;;39.10;79.10;;;;;;5049649;28;20052;-68
2021/08/11 08:23:39;;;;;;;10.60;4.22;;;40.90;77.50;;;;;;5049548;28;20048;-68
2021/08/11 08:26:45;;;;;;;11.63;2.90;;;42.30;75.40;;;;;;5049701;28;20059;-69
2021/08/11 08:29:52;;;;;;;12.30;4.05;;;43.70;72.80;;;;;;5049399;28;20051;-66
2021/08/11 08:32:57;;;;;;;10.15;3.33;;;44.10;72.10;;;;;;5059188;28;20044;-68
2021/08/11 08:36:01;;;;;;;8.18;3.50;;;44.30;71.20;;;;;;5049709;28;20044;-68
2021/08/11 08:39:05;;;;;;;6.43;3.08;;;43.80;72.00;;;;;;5049137;28;20044;-68
2021/08/11 08:42:10;;;;;;;12.07;3.47;;;42.50;72.70;;;;;;5049507;28;20403;-67
2021/08/11 08:45:15;;;;;;;8.80;3.20;;;42.40;72.50;;;;;;5049580;28;20048;-67
2021/08/11 08:48:20;;;;;;;14.73;3.65;;;41.80;73.90;;;;;;5059868;28;20048;-68
2021/08/11 08:51:26;;;;;;;10.52;3.47;;;41.50;73.50;;;;;;5049224;28;20243;-67
2021/08/11 08:54:34;;;;;;;17.27;3.25;;;43.20;72.10;;;;;;5049420;28;20040;-68
2021/08/11 08:57:38;;;;;;;8.20;3.33;;;43.50;71.30;;;;;;5048712;28;20525;-68
2021/08/11 09:00:43;;;;;;;9.60;3.40;;;45.00;70.70;;;;;;5049688;28;20055;-69
2021/08/11 09:03:48;;;;;;;8.25;2.80;;;46.00;69.50;;;;;;5049095;28;20036;-69
2021/08/11 09:06:52;;;;;;;7.07;2.75;;;47.60;66.20;;;;;;5049304;28;20047;-66
2021/08/11 09:09:56;;;;;;;7.47;2.90;;;48.50;64.80;;;;;;5045964;28;20049;-66
2021/08/11 09:13:08;;;;;;;6.05;3.05;;;49.50;64.10;;;;;;5046794;28;20043;-67
2021/08/11 09:16:15;;;;;;;12.68;3.45;;;50.50;62.40;;;;;;5047522;28;20044;-67
2021/08/11 09:19:20;;;;;;;9.63;3.00;;;50.40;61.20;;;;;;5049528;28;20044;-70
2021/08/11 09:22:24;;;;;;;7.35;2.75;;;50.70;60.00;;;;;;5049204;28;20048;-68
2021/08/11 09:25:28;;;;;;;11.30;2.83;;;50.70;59.30;;;;;;5047982;28;20055;-68
2021/08/11 09:28:34;;;;;;;7.47;2.42;;;50.90;57.60;;;;;;5049591;28;20047;-67
2021/08/11 09:31:38;;;;;;;7.18;2.80;;;50.50;57.30;;;;;;5048970;28;20629;-66
2021/08/11 09:34:43;;;;;;;13.02;2.58;;;50.40;57.30;;;;;;5049550;28;20392;-66
2021/08/11 09:37:49;;;;;;;10.48;2.70;;;51.20;57.10;;;;;;5048934;28;20060;-66
2021/08/11 09:40:57;;;;;;;7.40;2.70;;;52.00;56.70;;;;;;5049739;28;20048;-66
2021/08/11 09:44:11;;;;;;;9.85;3.03;;;52.30;54.80;;;;;;5050890;28;20043;-66
2021/08/11 09:47:18;;;;;;;5.32;2.55;;;52.50;55.60;;;;;;5052958;28;20411;-69
2021/08/11 09:51:04;;;;;;;7.82;2.92;;;52.20;55.70;;;;;;5052823;28;20515;-67
2021/08/11 09:54:08;;;;;;;10.93;3.38;;;48.90;54.90;;;;;;5040764;28;20040;-68
2021/08/11 09:57:28;;;;;;;5.95;2.70;;;49.80;56.90;;;;;;5052912;28;20341;-68
2021/08/11 10:00:38;;;;;;;8.68;2.95;;;49.80;57.50;;;;;;5052980;28;20056;-68
2021/08/11 10:04:00;;;;;;;7.75;2.70;;;50.10;56.70;;;;;;5052639;28;20040;-68
2021/08/11 10:07:08;;;;;;;7.22;3.13;;;46.60;57.50;;;;;;5052427;28;20064;-68
2021/08/11 10:10:13;;;;;;;10.43;3.20;;;48.00;58.70;;;;;;5052277;28;20040;-68
2021/08/11 10:13:21;;;;;;;11.25;3.17;;;50.40;57.00;;;;;;5052327;28;20047;-68
2021/08/11 10:16:25;;;;;;;7.90;2.90;;;51.50;55.70;;;;;;5052590;28;20064;-68
2021/08/11 10:19:31;;;;;;;9.60;2.72;;;52.20;55.00;;;;;;5051803;28;20048;-68
2021/08/11 10:22:39;;;;;;;6.07;2.40;;;50.00;56.60;;;;;;5052020;28;20048;-69
2021/08/11 10:25:44;;;;;;;6.85;2.88;;;51.60;55.60;;;;;;5062785;28;20495;-68
2021/08/11 10:28:48;;;;;;;11.48;3.13;;;52.50;55.00;;;;;;5051516;28;20043;-66
2021/08/11 10:31:54;;;;;;;15.70;4.05;;;53.00;54.30;;;;;;5051857;28;20385;-66
2021/08/11 10:34:59;;;;;;;9.23;2.75;;;53.10;53.50;;;;;;5051561;28;20048;-66
2021/08/11 10:38:05;;;;;;;6.20;2.67;;;53.30;53.40;;;;;;5062174;28;20044;-68
2021/08/11 10:41:10;;;;;;;7.45;2.83;;;53.70;52.90;;;;;;5051999;28;20051;-66
2021/08/11 10:44:25;;;;;;;9.50;2.83;;;53.80;52.60;;;;;;5051379;28;20052;-66
2021/08/11 10:47:34;;;;;;;7.55;2.92;;;53.90;52.20;;;;;;5051711;28;20044;-66
2021/08/11 10:50:45;;;;;;;11.60;2.67;;;53.30;53.00;;;;;;5051641;28;20072;-67
2021/08/11 10:54:03;;;;;;;10.80;3.08;;;52.90;52.90;;;;;;5051925;28;20040;-68
2021/08/11 10:57:07;;;;;;;11.95;2.50;;;53.10;52.70;;;;;;5050983;28;20044;-67
2021/08/11 11:00:21;;;;;;;12.93;3.28;;;51.50;52.90;;;;;;5051205;28;20044;-68
2021/08/11 11:03:49;;;;;;;12.40;2.75;;;51.60;53.40;;;;;;5039046;28;20048;-68
2021/08/11 11:07:15;;;;;;;10.80;3.00;;;51.00;53.30;;;;;;5051522;28;20036;-68
2021/08/11 11:10:27;;;;;;;8.88;2.72;;;51.40;53.30;;;;;;5051461;28;20044;-67
2021/08/11 11:13:37;;;;;;;10.30;3.30;;;50.80;52.70;;;;;;5051726;28;20040;-67
2021/08/11 11:17:03;;;;;;;7.95;2.90;;;49.70;54.50;;;;;;5051104;28;20104;-68
2021/08/11 11:20:08;;;;;;;8.57;2.80;;;47.10;55.80;;;;;;5050688;28;20048;-67
2021/08/11 11:23:32;;;;;;;7.78;2.72;;;48.90;55.00;;;;;;5051212;28;20534;-67
2021/08/11 11:26:37;;;;;;;6.88;2.83;;;49.10;53.90;;;;;;5050747;28;20040;-68
2021/08/11 11:29:48;;;;;;;7.88;3.22;;;50.20;53.00;;;;;;5050823;28;20036;-66
2021/08/11 11:32:55;;;;;;;9.52;2.58;;;48.30;54.30;;;;;;5050873;28;20051;-67
2021/08/11 11:36:20;;;;;;;7.72;2.47;;;49.80;53.50;;;;;;5050859;28;20056;-66
2021/08/11 11:39:29;;;;;;;8.35;2.50;;;51.40;52.40;;;;;;5050287;28;20545;-68
2021/08/11 11:42:34;;;;;;;7.82;2.75;;;52.00;52.00;;;;;;5049656;28;20411;-67
2021/08/11 11:45:44;;;;;;;9.38;2.50;;;52.70;51.20;;;;;;5038017;28;20518;-64
2021/08/11 11:49:20;;;;;;;6.72;2.33;;;51.10;51.30;;;;;;5050392;28;20040;-67
2021/08/11 11:52:25;;;;;;;11.82;3.25;;;49.90;51.20;;;;;;5050421;28;20036;-67
2021/08/11 11:55:41;;;;;;;5.93;2.58;;;49.10;52.30;;;;;;5050188;28;20510;-68
2021/08/11 11:58:48;;;;;;;7.05;2.45;;;49.60;52.20;;;;;;5050205;28;20519;-65
2021/08/11 12:01:55;;;;;;;8.90;2.72;;;49.80;51.90;;;;;;5049916;28;20056;-68
2021/08/11 12:05:04;;;;;;;5.28;2.50;;;48.70;52.00;;;;;;5050463;28;20732;-68
2021/08/11 12:08:16;;;;;;;7.05;2.58;;;49.90;51.60;;;;;;5038319;28;20399;-66
2021/08/11 12:11:25;;;;;;;5.88;2.53;;;50.10;50.60;;;;;;5050572;28;20048;-68
2021/08/11 12:14:32;;;;;;;6.32;2.30;;;50.60;49.60;;;;;;5050785;28;20499;-68
2021/08/11 12:17:39;;;;;;;13.70;2.00;;;50.80;48.20;;;;;;5049569;28;20044;-67
2021/08/11 12:20:46;;;;;;;5.53;1.77;;;50.80;48.10;;;;;;5049654;28;20384;-67
2021/08/11 12:23:52;;;;;;;4.05;2.00;;;47.40;48.10;;;;;;5049579;28;20048;-66
2021/08/11 12:26:56;;;;;;;7.00;2.10;;;47.50;49.00;;;;;;5050122;28;20057;-67
2021/08/11 12:30:17;;;;;;;3.88;2.00;;;48.50;48.80;;;;;;5048660;28;20044;-68
2021/08/11 12:33:23;;;;;;;5.97;2.20;;;49.00;47.50;;;;;;5049879;28;20048;-67
2021/08/11 12:36:32;;;;;;;6.32;1.90;;;46.90;47.30;;;;;;5049346;28;20048;-67
2021/08/11 12:39:38;;;;;;;3.80;1.95;;;47.10;48.70;;;;;;5049472;28;20036;-67
2021/08/11 12:42:56;;;;;;;5.13;1.75;;;46.60;48.70;;;;;;5049649;28;20052;-68
2021/08/11 12:46:05;;;;;;;7.50;2.42;;;47.90;47.60;;;;;;5049785;28;20044;-67
2021/08/11 12:49:22;;;;;;;2.90;1.60;;;48.70;47.80;;;;;;5049366;28;20044;-67
2021/08/11 12:52:27;;;;;;;6.20;1.80;;;49.10;46.40;;;;;;5060140;28;20048;-67
2021/08/11 12:55:34;;;;;;;3.35;1.60;;;49.20;45.60;;;;;;5049603;28;20048;-66
2021/08/11 12:58:59;;;;;;;3.72;1.60;;;48.60;45.50;;;;;;5049180;28;20052;-68
2021/08/11 13:02:25;;;;;;;6.68;1.90;;;48.20;45.80;;;;;;5049016;28;20064;-67
2021/08/11 13:05:30;;;;;;;32.58;2.72;;;46.80;47.20;;;;;;5060186;28;20036;-66
2021/08/11 13:08:39;;;;;;;5.32;1.80;;;46.40;47.80;;;;;;5049352;28;20057;-67
2021/08/11 13:12:05;;;;;;;4.95;1.92;;;46.00;47.70;;;;;;5049330;28;20032;-67
2021/08/11 13:15:33;;;;;;;5.65;2.00;;;45.80;48.80;;;;;;5049677;28;20107;-67
2021/08/11 13:18:39;;;;;;;5.22;2.05;;;45.60;48.90;;;;;;5049738;28;20439;-66
2021/08/11 13:21:44;;;;;;;4.53;1.85;;;45.40;48.70;;;;;;5053138;28;20056;-67
2021/08/11 13:24:50;;;;;;;3.92;1.83;;;44.90;49.20;;;;;;5053674;28;20045;-67
2021/08/11 13:27:57;;;;;;;4.82;1.70;;;45.00;47.30;;;;;;5052485;28;20048;-67
2021/08/11 13:31:03;;;;;;;5.28;2.25;;;44.90;47.00;;;;;;5052918;28;20044;-67
2021/08/11 13:34:08;;;;;;;9.05;1.90;;;44.90;47.50;;;;;;5053005;28;20502;-67
2021/08/11 13:37:12;;;;;;;8.82;1.80;;;44.70;47.70;;;;;;5052707;28;20048;-67
2021/08/11 13:40:16;;;;;;;5.82;2.30;;;44.30;48.20;;;;;;5052932;28;20052;-67
2021/08/11 13:43:20;;;;;;;2.88;1.88;;;43.80;48.50;;;;;;5051880;28;20052;-68
2021/08/11 13:46:24;;;;;;;5.45;2.00;;;43.90;48.20;;;;;;5052497;28;20392;-67
2021/08/11 13:49:28;;;;;;;6.18;2.00;;;43.70;48.30;;;;;;5062706;28;20044;-66
2021/08/11 13:52:32;;;;;;;4.63;1.90;;;43.30;48.20;;;;;;5052514;28;20048;-67
2021/08/11 13:55:38;;;;;;;3.88;2.20;;;43.10;48.00;;;;;;5063034;28;20056;-68
2021/08/11 13:58:44;;;;;;;5.30;2.20;;;43.00;48.30;;;;;;5052004;28;20048;-67
2021/08/11 14:01:48;;;;;;;3.45;2.30;;;42.90;48.60;;;;;;5051404;28;20036;-67
2021/08/11 14:04:53;;;;;;;5.55;1.98;;;42.80;47.40;;;;;;5052598;28;20056;-67
2021/08/11 14:07:58;;;;;;;4.05;2.20;;;42.50;46.80;;;;;;5052166;28;20052;-67
2021/08/11 14:11:02;;;;;;;4.50;2.03;;;42.70;47.20;;;;;;5052576;28;20040;-68
2021/08/11 14:14:07;;;;;;;11.40;2.50;;;42.90;45.90;;;;;;5062688;28;20047;-67
2021/08/11 14:17:12;;;;;;;6.65;2.35;;;43.00;47.50;;;;;;5052018;28;20063;-67
2021/08/11 14:20:16;;;;;;;4.00;2.22;;;42.90;47.80;;;;;;5052252;28;20395;-68
2021/08/11 14:23:21;;;;;;;4.97;2.60;;;42.90;47.70;;;;;;5051883;28;20040;-67
2021/08/11 14:26:25;;;;;;;5.15;2.20;;;42.70;48.30;;;;;;5051936;28;20056;-67
2021/08/11 14:29:29;;;;;;;9.18;2.30;;;42.40;47.60;;;;;;5051143;28;20040;-67
2021/08/11 14:32:34;;;;;;;3.88;2.20;;;42.10;47.90;;;;;;5051940;28;20059;-67
2021/08/11 14:35:37;;;;;;;6.03;2.63;;;42.00;48.60;;;;;;5051795;28;20501;-66
2021/08/11 14:38:41;;;;;;;3.72;2.30;;;41.60;48.90;;;;;;5051178;28;20064;-66
2021/08/11 14:41:46;;;;;;;4.25;2.30;;;41.40;49.00;;;;;;5052013;28;20044;-66
2021/08/11 14:44:50;;;;;;;6.68;2.17;;;41.30;49.50;;;;;;5051645;28;20044;-67
2021/08/11 14:47:54;;;;;;;5.60;2.45;;;41.10;49.20;;;;;;5051066;28;20044;-67
2021/08/11 14:50:59;;;;;;;5.68;1.92;;;41.10;49.20;;;;;;5050566;28;20048;-67
2021/08/11 14:54:05;;;;;;;7.60;2.17;;;40.70;48.80;;;;;;5051398;28;20040;-67
2021/08/11 14:57:10;;;;;;;7.30;2.17;;;40.50;49.60;;;;;;5051502;28;20396;-66
2021/08/11 15:00:16;;;;;;;4.13;2.25;;;40.30;49.70;;;;;;5051336;28;20048;-67
2021/08/11 15:03:20;;;;;;;8.85;2.47;;;40.20;49.60;;;;;;5051356;28;20044;-68
2021/08/11 15:06:29;;;;;;;7.43;2.75;;;40.00;49.60;;;;;;5051567;28;20040;-67
2021/08/11 15:09:33;;;;;;;3.03;2.40;;;40.00;50.10;;;;;;5050743;28;20494;-65
2021/08/11 15:12:37;;;;;;;3.83;2.20;;;39.90;49.70;;;;;;5051395;28;20055;-67
2021/08/11 15:15:41;;;;;;;5.75;2.25;;;39.70;50.10;;;;;;5051106;28;20060;-67
2021/08/11 15:18:46;;;;;;;5.82;2.45;;;39.70;50.30;;;;;;5050111;28;20411;-67
2021/08/11 15:21:50;;;;;;;3.80;2.25;;;39.60;50.10;;;;;;5050924;28;20056;-67
2021/08/11 15:24:54;;;;;;;4.15;2.28;;;39.50;50.30;;;;;;5050709;28;20064;-67
2021/08/11 15:27:59;;;;;;;3.40;2.35;;;39.50;49.90;;;;;;5050093;28;20059;-66
2021/08/11 15:31:03;;;;;;;5.75;2.28;;;39.20;50.60;;;;;;5050776;28;20498;-67
2021/08/11 15:34:10;;;;;;;8.27;1.95;;;39.00;51.10;;;;;;5050641;28;20395;-67
2021/08/11 15:37:15;;;;;;;5.35;2.30;;;39.00;51.10;;;;;;5050991;28;20494;-68
2021/08/11 15:40:19;;;;;;;4.47;2.30;;;38.90;51.10;;;;;;5050322;28;20460;-67
2021/08/11 15:43:23;;;;;;;4.78;2.42;;;38.90;51.40;;;;;;5050388;28;20431;-67
2021/08/11 15:46:27;;;;;;;4.05;2.50;;;38.90;51.20;;;;;;5050497;28;20052;-67
2021/08/11 15:49:31;;;;;;;4.22;2.35;;;38.90;51.30;;;;;;5049927;28;20048;-66
2021/08/11 15:52:36;;;;;;;7.22;2.65;;;38.80;51.50;;;;;;5050545;28;20055;-67
2021/08/11 15:55:40;;;;;;;6.38;2.10;;;38.60;51.50;;;;;;5050094;28;20048;-67
2021/08/11 15:58:45;;;;;;;4.20;2.50;;;38.60;51.80;;;;;;5049785;28;20053;-68
2021/08/11 16:01:49;;;;;;;3.75;2.42;;;38.60;51.60;;;;;;5050493;28;20056;-68
2021/08/11 16:04:53;;;;;;;5.85;2.50;;;38.50;51.00;;;;;;5050363;28;20507;-68
2021/08/11 16:08:00;;;;;;;3.72;2.28;;;38.30;51.30;;;;;;5049721;28;20048;-68